Terminal Aerodrome Forecast
Issued by NWS

Home | Current Version | Previous Version | Text Only | Print | Product List | Glossary On
Versions: 1 2 3 4 5 6 7 8 9 10 11 12
000
FTUS45 KVEF 210500
TAFDAG
TAF
KDAG 210528Z 2106/2206 18003KT P6SM FEW028 BKN250
     FM210700 27008KT P6SM SCT030 BKN250
     FM211700 29006KT P6SM SCT250
     FM212100 VRB04KT P6SM FEW250
     FM220300 17004KT P6SM FEW250=

USA.gov is the U.S. government's official web portal to all federal, state and local government web resources and services.